GBYD/BJL METAR and TAF weather

Enter ICAO airport designator
Station Type Date Time Source
GBYD METAR 2024/06/15 22:00 UTC NOAA

GBYD 152200Z 14005KT 9999 TS SCT010 FEW018CB BKN100 24/22 Q1014


Station Type Date Time Source
GBYD Decoded METAR 2024/06/15 22:00 UTC NOAA

Banjul / Yundum, Gambia, The (GBYD) 13-21N 016-48W 36M
Jun 15, 2024 - 06:00 PM EDT / 2024.06.15 2200 UTC
Wind: from the SE (140 degrees) at 6 MPH (5 KT):0
Visibility: greater than 7 mile(s):0
Sky conditions: mostly cloudy
Weather: thunder; Cumulonimbus clouds observed
Temperature: 75 F (24 C)
Dew Point: 71 F (22 C)
Relative Humidity: 88%
Pressure (altimeter): 29.94 in. Hg (1014 hPa)
ob: GBYD 152200Z 14005KT 9999 TS SCT010 FEW018CB BKN100 24/22 Q1014
cycle: 22

Station Type Date Time Source
GBYD TAF 2024/06/15 18:51 UTC NOAA